Flight Track Log - Related Links

Times and Time Zones

All times are in EDT time to prevent confusion due to time zone crossing. See the AAL1774 flight status page for this flight to view local times or setup timezone preferences in your user account.

Time Position Orientation Groundspeed Altitude Reporting Facility
EDT Latitude Longitude Course Direction KTS MPH feet Rate Location/Type
Mon 01:28:53 PM 25.8003 -80.2722 318° Northwest 188 216 1,200  Level Miami Center
Mon 01:29:55 PM 25.8350 -80.2225 52° Northeast 212 244 3,800 2,585 Climbing Miami Center
Mon 01:30:56 PM 25.8858 -80.1869 32° Northeast 243 280 6,500 2,521 Climbing Miami Center
Mon 01:31:00 PM 26.0320 -80.5705 310° West  Level FlightAware Approximate
Mon 01:31:54 PM 25.9458 -80.2094 341° North 267 307 8,800  Level Miami Center
Mon 01:32:00 PM 26.1167 -80.6666 318° Northwest  Level FlightAware Approximate
Mon 01:32:54 PM 26.0119 -80.2389 338° Northwest 279 321 8,900  Level Miami Center
Mon 01:33:00 PM 26.2069 -80.7569 318° Northwest  Level FlightAware Approximate
Mon 01:33:54 PM 26.0783 -80.2617 343° North 260 299 10,800  Level Miami Center
Mon 01:34:00 PM 26.2971 -80.8471 318° Northwest  Level FlightAware Approximate
Mon 01:34:54 PM 26.1508 -80.2914 340° North 266 306 12,800  Level Miami Center
Mon 01:35:54 PM 26.1992 -80.3692 305° West 284 327 14,400 1,200 Climbing Miami Center
Mon 01:36:54 PM 26.2211 -80.4881 282° West 343 395 15,200 1,700 Climbing Miami Center
Mon 01:37:54 PM 26.2306 -80.6181 275° West 375 432 17,800 2,250 Climbing Miami Center
Mon 01:38:54 PM 26.2964 -80.7358 302° West 405 466 19,700 2,050 Climbing Miami Center
Mon 01:39:54 PM 26.3908 -80.7900 333° Northwest 406 467 21,900 1,900 Climbing Miami Center
Mon 01:40:54 PM 26.4992 -80.8794 324° Northwest 433 498 23,500 1,550 Climbing Miami Center
Mon 01:41:54 PM 26.6036 -80.9572 326° Northwest 448 516 25,000 1,650 Climbing Miami Center
Mon 01:42:54 PM 26.6994 -81.0306 326° Northwest 463 533 26,800 1,500 Climbing Miami Center
Mon 01:43:54 PM 26.8058 -81.1086 327° Northwest 458 527 28,000 1,450 Climbing Miami Center
Mon 01:44:54 PM 26.9264 -81.2017 325° Northwest 469 540 29,700 1,550 Climbing Miami Center
Mon 01:45:54 PM 27.0119 -81.2653 326° Northwest 469 540 31,100 1,550 Climbing Miami Center
Mon 01:46:54 PM 27.1036 -81.4111 305° West 457 526 32,800 1,500 Climbing Miami Center
Mon 01:47:54 PM 27.1283 -81.5497 281° West 471 542 34,100 1,300 Climbing Miami Center
Mon 01:48:54 PM 27.1633 -81.6958 285° West 492 566 35,400 1,250 Climbing Miami Center
Mon 01:49:54 PM 27.1994 -81.8606 284° West 498 573 36,600 1,000 Climbing Miami Center
Mon 01:50:54 PM 27.2294 -82.0136 282° West 493 567 37,400 700 Climbing Miami Center
Mon 01:51:54 PM 27.2617 -82.1622 284° West 493 567 38,000 300 Climbing Miami Center
Mon 01:52:54 PM 27.2903 -82.2944 284° West 493 567 38,000  Level Miami Center
Mon 01:53:54 PM 27.3219 -82.4431 284° West 493 567 38,000  Level Miami Center
Mon 01:54:54 PM 27.3553 -82.6083 283° West 493 567 38,000  Level Miami Center
Mon 01:55:54 PM 27.3867 -82.7594 283° West 493 567 38,000  Level Miami Center
Mon 01:56:54 PM 27.4203 -82.9036 285° West 487 560 38,000  Level Miami Center
Mon 01:57:54 PM 27.4497 -83.0503 283° West 487 560 38,000  Level Miami Center
Mon 01:58:54 PM 27.4786 -83.1992 282° West 487 560 38,000  Level Miami Center
Mon 01:59:54 PM 27.5097 -83.3458 283° West 487 560 38,000  Level Miami Center
Mon 02:00:54 PM 27.5383 -83.4925 282° West 487 560 38,000  Level Miami Center
Mon 02:01:54 PM 27.5669 -83.6394 282° West 487 560 38,000  Level Miami Center
Mon 02:02:54 PM 27.5975 -83.7864 283° West 487 560 38,000  Level Miami Center
Mon 02:03:54 PM 27.6239 -83.9331 282° West 487 560 38,000  Level Miami Center
Mon 02:05:41 PM 27.6781 -84.1978 283° West 512 589 38,000  Level Jacksonville Center
Mon 02:06:41 PM 27.7078 -84.3456 283° West 501 577 38,000  Level Jacksonville Center
Mon 02:07:41 PM 27.7372 -84.4914 283° West 483 556 38,000  Level Jacksonville Center
Mon 02:08:41 PM 27.7667 -84.6372 283° West 483 556 38,000  Level Jacksonville Center
Mon 02:09:41 PM 27.7919 -84.7714 282° West 478 550 38,000  Level Jacksonville Center
Mon 02:10:41 PM 27.8211 -84.9103 283° West 472 543 38,000  Level Jacksonville Center
Mon 02:11:41 PM 27.8458 -85.0589 281° West 472 543 38,000  Level Jacksonville Center
Mon 02:12:41 PM 27.8767 -85.2025 284° West 472 543 38,000  Level Jacksonville Center
Mon 02:13:41 PM 27.9139 -85.3419 287° West 472 543 38,000  Level Jacksonville Center
Mon 02:14:41 PM 27.9528 -85.4839 287° West 472 543 38,000  Level Jacksonville Center
Mon 02:15:41 PM 27.9958 -85.6167 290° West 463 533 38,000  Level Jacksonville Center
Mon 02:16:41 PM 28.0347 -85.7469 289° West 463 533 38,000  Level Jacksonville Center
Mon 02:17:41 PM 28.0775 -85.8844 289° West 463 533 38,000  Level Jacksonville Center
Mon 02:18:41 PM 28.1200 -86.0342 288° West 458 527 38,000  Level Jacksonville Center
Mon 02:19:41 PM 28.1606 -86.1625 290° West 452 520 38,000  Level Jacksonville Center
Mon 02:20:41 PM 28.2008 -86.2978 289° West 445 512 38,000  Level Jacksonville Center
Mon 02:21:41 PM 28.2431 -86.4336 289° West 451 519 38,000  Level Jacksonville Center
Mon 02:22:41 PM 28.2811 -86.5669 288° West 454 522 38,000  Level Jacksonville Center
Mon 02:23:41 PM 28.3250 -86.7075 290° West 464 534 38,000  Level Jacksonville Center
Mon 02:24:41 PM 28.3625 -86.8433 287° West 464 534 38,000  Level Jacksonville Center
Mon 02:25:41 PM 28.4058 -86.9914 288° West 471 542 38,000  Level Jacksonville Center
Mon 02:26:41 PM 28.4414 -87.1228 287° West 465 535 38,000  Level Jacksonville Center
Mon 02:27:28 PM 28.4725 -87.2261 289° West 464 534 38,000  Level Houston Center
Mon 02:28:30 PM 28.5122 -87.3661 288° West 465 535 38,000  Level Houston Center
Mon 02:29:32 PM 28.5519 -87.5053 288° West 463 533 38,000  Level Houston Center
Mon 02:30:34 PM 28.5911 -87.6436 288° West 461 531 38,000  Level Houston Center
Mon 02:31:36 PM 28.6306 -87.7822 288° West 460 529 38,000  Level Houston Center
Mon 02:32:38 PM 28.6708 -87.9206 288° West 462 532 38,000  Level Houston Center
Mon 02:33:40 PM 28.7158 -88.0858 287° West 457 526 38,000  Level Houston Center
Mon 02:34:42 PM 28.7506 -88.2044 288° West 455 524 38,000  Level Houston Center
Mon 02:35:44 PM 28.7961 -88.3692 288° West 457 526 38,000  Level Houston Center
Mon 02:36:46 PM 28.8331 -88.5058 287° West 452 520 38,000  Level Houston Center
Mon 02:37:47 PM 28.8697 -88.6422 287° West 451 519 38,000  Level Houston Center
Mon 02:38:49 PM 28.9081 -88.7775 288° West 450 518 38,000  Level Houston Center
Mon 02:39:51 PM 28.9453 -88.9144 287° West 452 520 38,000  Level Houston Center
Mon 02:40:53 PM 28.9714 -89.0539 282° West 451 519 38,000  Level Houston Center
Mon 02:41:55 PM 28.9886 -89.2278 277° West 459 528 38,000  Level Houston Center
Mon 02:42:57 PM 29.0061 -89.3708 278° West 456 525 38,000  Level Houston Center
Mon 02:43:59 PM 29.0219 -89.5181 277° West 463 533 38,000  Level Houston Center
Mon 02:45:01 PM 29.0397 -89.6622 278° West 463 533 38,000  Level Houston Center
Mon 02:46:03 PM 29.0586 -89.8050 279° West 457 526 38,000  Level Houston Center
Mon 02:47:05 PM 29.0914 -89.9428 285° West 453 521 38,000  Level Houston Center
Mon 02:48:07 PM 29.1586 -90.0636 303° West 449 517 38,000  Level Houston Center
Mon 02:49:09 PM 29.2444 -90.1997 306° West 445 512 38,000  Level Houston Center
Mon 02:50:11 PM 29.3161 -90.3164 305° West 444 511 38,000  Level Houston Center
Mon 02:51:13 PM 29.3878 -90.4322 305° West 445 512 38,000  Level Houston Center
Mon 02:52:15 PM 29.4583 -90.5469 305° West 440 506 38,000  Level Houston Center
Mon 02:53:17 PM 29.5275 -90.6611 305° West 436 502 38,000  Level Houston Center
Mon 02:54:19 PM 29.5969 -90.7756 305° West 435 501 38,000  Level Houston Center
Mon 02:55:21 PM 29.6667 -90.8900 305° West 438 504 38,000  Level Houston Center
Mon 02:56:23 PM 29.7497 -91.0272 305° West 434 499 38,000  Level Houston Center
Mon 02:57:25 PM 29.8200 -91.1411 305° West 435 501 38,000  Level Houston Center
Mon 02:58:27 PM 29.8881 -91.2550 305° West 431 496 38,000  Level Houston Center
Mon 02:59:29 PM 29.9558 -91.3661 305° West 425 489 38,000  Level Houston Center
Mon 03:00:31 PM 30.0225 -91.4783 304° West 424 488 38,000  Level Houston Center
Mon 03:01:33 PM 30.0881 -91.5914 304° West 424 488 38,000  Level Houston Center
Mon 03:02:35 PM 30.1569 -91.7025 306° West 425 489 38,000  Level Houston Center
Mon 03:03:37 PM 30.2350 -91.8353 304° West 428 493 38,000  Level Houston Center
Mon 03:04:39 PM 30.3025 -91.9481 305° West 427 491 38,000  Level Houston Center
Mon 03:05:41 PM 30.3694 -92.0622 304° West 427 491 38,000  Level Houston Center
Mon 03:06:43 PM 30.4358 -92.1761 304° West 427 491 38,000  Level Houston Center
Mon 03:07:45 PM 30.5167 -92.3114 305° West 425 489 38,000  Level Houston Center
Mon 03:08:47 PM 30.5831 -92.4236 305° West 423 487 38,000  Level Houston Center
Mon 03:09:49 PM 30.6503 -92.5389 304° West 428 493 38,000  Level Houston Center
Mon 03:10:51 PM 30.7169 -92.6519 304° West 425 489 38,000  Level Houston Center
Mon 03:11:53 PM 30.7850 -92.7686 304° West 431 496 38,000  Level Houston Center
Mon 03:12:54 PM 30.8531 -92.8844 304° West 433 498 38,000  Level Houston Center
Mon 03:13:56 PM 30.9253 -93.0081 304° West 435 501 38,000  Level Houston Center
Mon 03:14:58 PM 30.9933 -93.1256 304° West 440 506 38,000  Level Houston Center
Mon 03:16:00 PM 31.0600 -93.2447 303° West 443 510 38,000  Level Houston Center
Mon 03:17:02 PM 31.1408 -93.3886 303° West 445 512 38,000  Level Houston Center
Mon 03:18:04 PM 31.2094 -93.5089 304° West 447 514 38,000  Level Houston Center
Mon 03:19:06 PM 31.2869 -93.6433 304° West 448 516 38,000  Level Houston Center
Mon 03:20:08 PM 31.3539 -93.7636 303° West 444 511 38,000  Level Houston Center
Mon 03:21:10 PM 31.4239 -93.8867 304° West 451 519 38,000  Level Houston Center
Mon 03:22:12 PM 31.4931 -94.0075 304° West 449 517 38,000  Level Houston Center
Mon 03:23:14 PM 31.5614 -94.1289 303° West 448 516 38,000  Level Houston Center
Mon 03:24:16 PM 31.6286 -94.2506 303° West 448 516 38,000  Level Houston Center
Mon 03:25:17 PM 31.7097 -94.3958 303° West 446 513 38,000  Level Houston Center
Mon 03:26:19 PM 31.7561 -94.5278 292° West 442 509 38,000  Level Houston Center
Mon 03:27:21 PM 31.7950 -94.6644 289° West 444 511 38,000  Level Houston Center
Mon 03:28:23 PM 31.8344 -94.8008 289° West 444 511 38,000  Level Houston Center
Mon 03:29:25 PM 31.8733 -94.9397 288° West 448 516 38,000  Level Houston Center
Mon 03:30:27 PM 31.9119 -95.0758 289° West 443 510 38,000  Level Houston Center
Mon 03:31:46 PM 31.9656 -95.2708 288° West 443 510 38,000  Level Fort Worth Center
Mon 03:32:46 PM 32.0056 -95.4119 289° West 443 510 38,000  Level Fort Worth Center
Mon 03:33:46 PM 32.0431 -95.5531 287° West 443 510 38,000  Level Fort Worth Center
Mon 03:34:46 PM 32.0850 -95.7044 288° West 448 516 38,000  Level Fort Worth Center
Mon 03:35:46 PM 32.1244 -95.8483 288° West 448 516 38,000  Level Fort Worth Center
Mon 03:36:46 PM 32.1636 -95.9925 288° West 458 527 38,000  Level Fort Worth Center
Mon 03:37:46 PM 32.2028 -96.1342 288° West 458 527 38,000  Level Fort Worth Center
Mon 03:38:46 PM 32.2439 -96.2836 288° West 458 527 38,000  Level Fort Worth Center
Mon 03:39:46 PM 32.2847 -96.4256 289° West 458 527 38,000  Level Fort Worth Center
Mon 03:40:46 PM 32.3233 -96.5725 287° West 458 527 38,000  Level Fort Worth Center
Mon 03:41:45 PM 32.3597 -96.7197 286° West 463 533 38,000  Level Fort Worth Center
Mon 03:42:45 PM 32.4000 -96.8697 288° West 463 533 38,000  Level Fort Worth Center
Mon 03:43:46 PM 32.4383 -97.0172 287° West 468 539 38,000  Level Fort Worth Center
Mon 03:44:46 PM 32.4761 -97.1672 287° West 473 544 38,000  Level Fort Worth Center
Mon 03:45:46 PM 32.5139 -97.3147 287° West 480 552 38,000  Level Fort Worth Center
Mon 03:46:46 PM 32.5556 -97.4675 288° West 480 552 38,000  Level Fort Worth Center
Mon 03:47:46 PM 32.5953 -97.6156 288° West 480 552 38,000  Level Fort Worth Center
Mon 03:48:46 PM 32.6344 -97.7661 287° West 480 552 38,000  Level Fort Worth Center
Mon 03:49:46 PM 32.6694 -97.8994 287° West 480 552 38,000  Level Fort Worth Center
Mon 03:50:46 PM 32.7086 -98.0506 287° West 480 552 38,000  Level Fort Worth Center
Mon 03:51:45 PM 32.7472 -98.2039 287° West 480 552 38,000  Level Fort Worth Center
Mon 03:52:46 PM 32.7861 -98.3525 287° West 480 552 38,000  Level Fort Worth Center
Mon 03:53:46 PM 32.8264 -98.5111 287° West 475 547 38,000  Level Fort Worth Center
Mon 03:54:46 PM 32.8625 -98.6650 286° West 469 540 38,000  Level Fort Worth Center
Mon 03:55:46 PM 32.9006 -98.8164 287° West 480 552 38,000  Level Fort Worth Center
Mon 03:56:46 PM 32.9386 -98.9678 287° West 480 552 38,000  Level Fort Worth Center
Mon 03:57:46 PM 32.9742 -99.1197 286° West 480 552 38,000  Level Fort Worth Center
Mon 03:58:46 PM 33.0117 -99.2739 286° West 480 552 38,000  Level Fort Worth Center
Mon 03:59:46 PM 33.0469 -99.4133 287° West 480 552 38,000  Level Fort Worth Center
Mon 04:00:46 PM 33.0842 -99.5681 286° West 480 552 38,000  Level Fort Worth Center
Mon 04:01:46 PM 33.1208 -99.7250 286° West 485 558 38,000  Level Fort Worth Center
Mon 04:02:46 PM 33.1597 -99.8825 286° West 490 564 38,000  Level Fort Worth Center
Mon 04:03:46 PM 33.1942 -100.0372 285° West 490 564 38,000  Level Fort Worth Center
Mon 04:04:46 PM 33.2303 -100.1972 285° West 498 573 38,000  Level Fort Worth Center
Mon 04:05:46 PM 33.2644 -100.3500 285° West 493 567 38,000  Level Fort Worth Center
Mon 04:06:46 PM 33.3003 -100.5078 285° West 493 567 38,000  Level Fort Worth Center
Mon 04:07:46 PM 33.3381 -100.6608 286° West 493 567 38,000  Level Fort Worth Center
Mon 04:08:46 PM 33.3717 -100.8161 285° West 493 567 38,000  Level Fort Worth Center
Mon 04:09:46 PM 33.4089 -100.9719 286° West 488 562 38,000  Level Fort Worth Center
Mon 04:10:46 PM 33.4458 -101.1425 285° West 479 551 38,000  Level Fort Worth Center
Mon 04:11:46 PM 33.4772 -101.2783 286° West 479 551 38,000  Level Fort Worth Center
Mon 04:12:46 PM 33.5156 -101.4469 285° West 479 551 38,000  Level Fort Worth Center
Mon 04:13:46 PM 33.5444 -101.5828 284° West 479 551 38,000  Level Fort Worth Center
Mon 04:14:46 PM 33.5850 -101.7469 287° West 494 568 38,000  Level Fort Worth Center
Mon 04:15:46 PM 33.6133 -101.8903 283° West 488 562 38,000  Level Fort Worth Center
Mon 04:16:46 PM 33.6503 -102.0769 283° West 504 580 38,000  Level Fort Worth Center
Mon 04:17:46 PM 33.6806 -102.2133 285° West 489 563 38,000  Level Fort Worth Center
Mon 04:18:46 PM 33.7158 -102.3825 284° West 479 551 38,000  Level Fort Worth Center
Mon 04:21:34 PM 33.8067 -102.8014 285° West 486 559 38,000  Level Albuquerque Center
Mon 04:22:36 PM 33.8397 -102.9567 284° West 487 560 38,000  Level Albuquerque Center
Mon 04:23:38 PM 33.8794 -103.1439 284° West 485 558 38,000  Level Albuquerque Center
Mon 04:24:39 PM 33.9114 -103.3039 284° West 489 563 38,000  Level Albuquerque Center
Mon 04:25:41 PM 33.9433 -103.4653 283° West 493 567 38,000  Level Albuquerque Center
Mon 04:26:43 PM 33.9744 -103.6294 283° West 496 571 38,000  Level Albuquerque Center
Mon 04:27:45 PM 34.0075 -103.7900 284° West 492 566 38,000  Level Albuquerque Center
Mon 04:28:46 PM 34.0392 -103.9522 283° West 492 566 38,000  Level Albuquerque Center
Mon 04:29:48 PM 34.0700 -104.1117 283° West 487 560 38,000  Level Albuquerque Center
Mon 04:30:50 PM 34.1019 -104.2742 283° West 490 564 38,000  Level Albuquerque Center
Mon 04:31:51 PM 34.1386 -104.4661 283° West 497 572 38,000  Level Albuquerque Center
Mon 04:32:53 PM 34.1697 -104.6292 283° West 494 568 38,000  Level Albuquerque Center
Mon 04:33:55 PM 34.1997 -104.7903 283° West 488 562 38,000  Level Albuquerque Center
Mon 04:34:56 PM 34.2308 -104.9525 283° West 490 564 38,000  Level Albuquerque Center
Mon 04:35:58 PM 34.2614 -105.1164 283° West 492 566 38,000  Level Albuquerque Center
Mon 04:37:00 PM 34.2917 -105.2789 283° West 491 565 38,000  Level Albuquerque Center
Mon 04:38:02 PM 34.3211 -105.4428 282° West 492 566 38,000  Level Albuquerque Center
Mon 04:39:03 PM 34.3519 -105.6067 283° West 494 568 38,000  Level Albuquerque Center
Mon 04:40:05 PM 34.3650 -105.7736 275° West 497 572 38,000  Level Albuquerque Center
Mon 04:41:06 PM 34.3692 -105.9422 272° West 497 572 38,000  Level Albuquerque Center
Mon 04:42:08 PM 34.3706 -106.1094 271° West 494 568 38,000  Level Albuquerque Center
Mon 04:43:10 PM 34.3725 -106.2806 271° West 498 573 38,000  Level Albuquerque Center
Mon 04:44:11 PM 34.3753 -106.4539 271° West 500 575 38,000  Level Albuquerque Center
Mon 04:45:13 PM 34.3769 -106.6478 271° West 499 574 38,000  Level Albuquerque Center
Mon 04:46:15 PM 34.3792 -106.8136 271° West 495 570 38,000  Level Albuquerque Center
Mon 04:47:16 PM 34.3800 -106.9775 270° West 490 564 38,000  Level Albuquerque Center
Mon 04:48:18 PM 34.3814 -107.1564 271° West 493 567 38,000 194 Level Albuquerque Center
Mon 04:49:20 PM 34.3789 -107.3156 269° West 491 565 38,400 732 Climbing Albuquerque Center
Mon 04:50:21 PM 34.3803 -107.4819 271° West 491 565 39,500 780 Climbing Albuquerque Center
Mon 04:51:23 PM 34.3806 -107.6433 270° West 484 557 40,000 242 Climbing Albuquerque Center
Mon 04:52:25 PM 34.3806 -107.8047 270° West 480 552 40,000  Level Albuquerque Center
Mon 04:53:26 PM 34.3814 -107.9686 270° West 482 555 40,000  Level Albuquerque Center
Mon 04:54:28 PM 34.3814 -108.1317 270° West 484 557 40,000  Level Albuquerque Center
Mon 04:55:30 PM 34.3817 -108.2967 270° West 488 562 40,000  Level Albuquerque Center
Mon 04:56:32 PM 34.3811 -108.4883 270° West 487 560 40,000  Level Albuquerque Center
Mon 04:57:33 PM 34.3803 -108.6428 270° West 482 555 40,000  Level Albuquerque Center
Mon 04:58:35 PM 34.3794 -108.8258 270° West 484 557 40,000  Level Albuquerque Center
Mon 04:59:37 PM 34.3792 -108.9828 270° West 485 558 40,000  Level Albuquerque Center
Mon 05:00:39 PM 34.3783 -109.1661 270° West 487 560 40,000  Level Albuquerque Center
Mon 05:01:40 PM 34.3767 -109.3236 269° West 488 562 40,000  Level Albuquerque Center
Mon 05:02:42 PM 34.3739 -109.5056 269° West 486 559 40,000  Level Albuquerque Center
Mon 05:03:44 PM 34.3725 -109.6581 269° West 479 551 40,000  Level Albuquerque Center
Mon 05:04:46 PM 34.3697 -109.8097 269° West 474 545 40,000  Level Albuquerque Center
Mon 05:05:47 PM 34.3667 -109.9878 269° West 474 545 40,000  Level Albuquerque Center
Mon 05:06:49 PM 34.3633 -110.1411 269° West 474 545 40,000  Level Albuquerque Center
Mon 05:07:51 PM 34.3603 -110.3183 269° West 473 544 40,000  Level Albuquerque Center
Mon 05:08:53 PM 34.3578 -110.4542 269° West 474 545 40,000  Level Albuquerque Center
Mon 05:09:55 PM 34.3542 -110.6439 269° West 474 545 40,000  Level Albuquerque Center
Mon 05:10:57 PM 34.3472 -110.7961 267° West 462 532 40,000  Level Albuquerque Center
Mon 05:11:58 PM 34.3433 -110.9497 268° West 459 528 40,000  Level Albuquerque Center
Mon 05:13:00 PM 34.3381 -111.1006 268° West 454 522 40,000  Level Albuquerque Center
Mon 05:14:02 PM 34.3331 -111.2492 268° West 447 514 40,000 -290 Level Albuquerque Center
Mon 05:15:04 PM 34.3278 -111.3956 268° West 441 507 39,400 -878 Descending Albuquerque Center
Mon 05:16:05 PM 34.3222 -111.5767 268° West 450 518 38,200 -683 Descending Albuquerque Center
Mon 05:17:07 PM 34.3172 -111.7267 268° West 452 520 38,000 -97 Descending Albuquerque Center
Mon 05:18:09 PM 34.3122 -111.8736 268° West 447 514 38,000  Level Albuquerque Center
Mon 05:19:11 PM 34.3058 -112.0200 267° West 444 511 38,000  Level Albuquerque Center
Mon 05:20:12 PM 34.3006 -112.1683 268° West 445 512 38,000  Level Albuquerque Center
Mon 05:21:14 PM 34.2933 -112.3469 267° West 446 513 38,000  Level Albuquerque Center
Mon 05:22:16 PM 34.2869 -112.4967 267° West 447 514 38,000  Level Albuquerque Center
Mon 05:23:18 PM 34.2803 -112.6444 267° West 445 512 38,000  Level Albuquerque Center
Mon 05:24:20 PM 34.2744 -112.7922 267° West 443 510 38,000  Level Albuquerque Center
Mon 05:25:21 PM 34.2661 -112.9389 266° West 442 509 38,000  Level Albuquerque Center
Mon 05:26:23 PM 34.2594 -113.0875 267° West 443 510 38,000  Level Albuquerque Center
Mon 05:27:25 PM 34.2503 -113.2636 266° West 441 507 38,000  Level Albuquerque Center
Mon 05:28:27 PM 34.2433 -113.4108 267° West 441 507 38,000  Level Albuquerque Center
Mon 05:29:29 PM 34.2347 -113.5578 266° West 440 506 38,000  Level Albuquerque Center
Mon 05:30:31 PM 34.2294 -113.7069 268° West 439 505 38,000  Level Albuquerque Center
Mon 05:31:32 PM 34.2225 -113.8531 267° West 438 504 38,000  Level Albuquerque Center
Mon 05:32:34 PM 34.2175 -113.9981 268° West 437 503 38,000  Level Albuquerque Center
Mon 05:33:36 PM 34.2103 -114.1456 267° West 436 502 38,000  Level Albuquerque Center
Mon 05:34:38 PM 34.2019 -114.3239 267° West 440 506 38,000  Level Albuquerque Center
Mon 05:35:25 PM 34.1978 -114.4261 267° West 441 507 38,000  Level Los Angeles Center
Mon 05:36:27 PM 34.1894 -114.5711 266° West 437 503 38,000  Level Los Angeles Center
Mon 05:37:29 PM 34.1814 -114.7133 266° West 428 493 38,000 -194 Level Los Angeles Center
Mon 05:38:31 PM 34.1711 -114.8878 266° West 435 501 37,600 -677 Descending Los Angeles Center
Mon 05:39:33 PM 34.1619 -115.0353 266° West 441 507 36,600 -774 Descending Los Angeles Center
Mon 05:40:35 PM 34.1533 -115.1847 266° West 446 513 36,000 -290 Descending Los Angeles Center
Mon 05:41:37 PM 34.1433 -115.3308 265° West 440 506 36,000  Level Los Angeles Center
Mon 05:42:39 PM 34.1350 -115.4772 266° West 438 504 36,000  Level Los Angeles Center
Mon 05:43:41 PM 34.1247 -115.6203 265° West 433 498 36,000 -265 Level Los Angeles Center
Mon 05:44:55 PM 34.1064 -115.8228 264° West 434 499 35,400 -971 Descending Los Angeles Center
Mon 05:45:57 PM 34.0831 -115.9681 259° West 440 506 33,800 -1,887 Descending Los Angeles Center
Mon 05:46:59 PM 34.0608 -116.1156 260° West 447 514 31,500 -2,323 Descending Los Angeles Center
Mon 05:48:01 PM 34.0381 -116.2661 260° West 453 521 29,000 -2,323 Descending Los Angeles Center
Mon 05:49:03 PM 34.0153 -116.4203 260° West 460 529 26,700 -2,226 Descending Los Angeles Center
Mon 05:50:05 PM 33.9958 -116.6053 263° West 466 536 24,400 -2,226 Descending Los Angeles Center
Mon 05:51:07 PM 33.9839 -116.7531 264° West 455 524 22,100 -2,419 Descending Los Angeles Center
Mon 05:52:09 PM 33.9719 -116.8894 264° West 430 495 19,400 -2,293 Descending Los Angeles Center
Mon 05:53:10 PM 33.9622 -117.0156 265° West 396 456 17,400 -1,268 Descending Los Angeles Center
Mon 05:54:12 PM 33.9514 -117.1425 264° West 384 442 16,800 -774 Descending Los Angeles Center
Mon 05:55:14 PM 33.9400 -117.2706 264° West 382 440 15,800 -1,344 Descending Los Angeles Center
Mon 05:56:17 PM 33.9500 -117.4167 275° West 384 442 14,000 -1,756 Descending Southern California TRACON
Mon 05:57:17 PM 33.9833 -117.5333 289° West 327 376 12,200 -1,686 Descending Southern California TRACON
Mon 05:58:18 PM 34.0167 -117.6333 292° West 367 422 10,600 -1,091 Descending Southern California TRACON
Mon 05:59:18 PM 34.0000 -117.7167 256° West 285 328 10,000 -950 Descending Southern California TRACON
Mon 06:00:18 PM 34.0000 -117.8167 270° West 297 342 8,700 -1,300 Descending Southern California TRACON
Mon 06:01:18 PM 33.9833 -117.9167 259° West 293 337 7,400 -1,368 Descending Southern California TRACON
Mon 06:02:12 PM 33.9667 -118.0167 259° West 275 316 6,100 -1,300 Descending Southern California TRACON
Mon 06:03:18 PM 33.9667 -118.1000 270° West 221 254 4,800 -1,100 Descending Southern California TRACON
Mon 06:04:12 PM 33.9667 -118.1500 270° West 199 229 3,900 -1,000 Descending Southern California TRACON
Mon 06:05:12 PM 33.9500 -118.2167 253° West 182 209 2,900 -950 Descending Southern California TRACON
Mon 06:06:12 PM 33.9500 -118.2667 270° West 168 193 2,000 -857 Descending Southern California TRACON
Mon 06:07:18 PM 33.9500 -118.3333 270° West 135 155 1,100 -750 Descending Southern California TRACON
Mon 06:08:12 PM 33.9333 -118.3667 239° Southwest 127 146 500 -667 Descending Southern California TRACON
Mon 06:10:00 PM 33.9333 -118.4000 270° West  Level FlightAware Approximate
Mon 06:17:00 PM 33.9425 -118.4081 270° West  Level Estimated

Login

Don't have an account? Register now (free) for customized features, flight alerts, and more!